• Join FlightAware (Why Join?)
  • Login
  • US Flag 
03:24AM EDT


 

Airport Tracker/Info


-or-


 

Live Flight TrackerFlight Track Log ✈ EJA396 ✈ 24-Sep-2013 ✈ KLEB - KIAD

Flight Track Log - Related Links

Times and Time Zones

All times are in EDT time to prevent confusion due to time zone crossing. See the EJA396 flight status page for this flight to view local times or setup timezone preferences in your user account.

Time Position Orientation Groundspeed Altitude Reporting Facility
EDT Latitude Longitude Course Direction KTS MPH feet Rate Location/Type
09:19AM 43.5217 -72.3142 188° South 444 511 7,300  Level Boston Center
09:20AM 43.4361 -72.3400 192° South 369 425 11,800 3,720 Climbing Boston Center
09:21AM 43.3342 -72.3717 193° South 358 412 14,900 3,240 Climbing Boston Center
09:22AM 43.2256 -72.4058 193° South 382 440 18,400 3,000 Climbing Boston Center
09:23AM 43.0970 -72.9399 188° South  Level Estimated
09:24AM 43.1069 -72.4400 192° South 398 458 21,600  Level Boston Center
09:25AM 42.9839 -72.5281 208° Southwest 403 464 24,800 2,940 Climbing Boston Center
09:26AM 42.8858 -72.6300 217° Southwest 428 493 27,400 2,940 Climbing Boston Center
09:27AM 42.8211 -72.7289 228° Southwest 420 483 30,800 2,280 Climbing Boston Center
09:28AM 42.7497 -72.8528 232° Southwest 410 472 32,000 540 Climbing Boston Center
09:29AM 42.6764 -72.9881 234° Southwest 432 497 32,000  Level Boston Center
09:30AM 42.5983 -73.1283 233° Southwest 464 534 32,000  Level Boston Center
09:31AM 42.5203 -73.2683 233° Southwest 464 534 32,000 540 Level Boston Center
09:32AM 42.3839 -73.3789 211° Southwest 475 547 33,200 960 Climbing Boston Center
09:33AM 42.2731 -73.4389 202° Southwest 473 544 34,000 360 Climbing Boston Center
09:34AM 42.1700 -73.5408 216° Southwest 479 551 34,000  Level Boston Center
09:35AM 42.1119 -73.7106 245° Southwest 454 522 34,000  Level Boston Center
09:36AM 42.0642 -73.8606 247° West 454 522 34,000  Level Boston Center
09:37AM 42.0164 -74.0106 247° West 444 511 34,000  Level Boston Center
09:38AM 41.9231 -74.1197 221° Southwest 438 504 34,000  Level Boston Center
09:39AM 41.7972 -74.1806 200° South 441 507 34,000  Level Boston Center
09:40AM 41.5822 -74.2764 198° South 515 593 34,000  Level New York Center
09:41AM 41.4492 -74.3442 201° Southwest 489 563 34,000 -360 Level New York Center
09:42AM 41.3167 -74.3869 194° South 489 563 33,300 -1,020 Descending New York Center
09:43AM 41.1869 -74.3992 184° South 517 595 32,000 -1,440 Descending New York Center
09:44AM 41.0572 -74.4253 189° South 497 572 30,500 -1,560 Descending New York Center
09:45AM 40.9333 -74.4544 190° South 475 547 29,000 -1,260 Descending New York Center
09:46AM 40.8550 -74.5625 226° Southwest 407 468 28,000 -540 Descending New York Center
09:47AM 40.8189 -74.7114 252° West 393 452 28,000  Level New York Center
09:48AM 40.7844 -74.8628 253° West 409 471 28,000  Level New York Center
09:49AM 40.7481 -75.0086 252° West 417 480 28,000  Level New York Center
09:50AM 40.6908 -75.1500 242° Southwest 429 494 28,000  Level New York Center
09:51AM 40.6253 -75.2881 238° Southwest 436 502 28,000 -240 Level New York Center
09:52AM 40.5575 -75.4231 237° Southwest 449 517 27,600 -1,560 Descending New York Center
09:53AM 40.4917 -75.5550 237° Southwest 449 517 25,000 -2,580 Descending New York Center
09:54AM 40.4303 -75.6817 238° Southwest 432 497 22,400 -2,400 Descending New York Center
09:55AM 40.3689 -75.8053 237° Southwest 425 489 20,300 -1,260 Descending New York Center
09:56AM 40.2983 -75.9389 235° Southwest 419 482 20,000 -660 Descending New York Center
09:57AM 40.2389 -76.0569 237° Southwest 410 472 19,000 -1,200 Descending New York Center
09:58AM 40.1861 -76.1644 237° Southwest 395 455 17,700 -1,500 Descending New York Center
09:59AM 40.1267 -76.2792 236° Southwest 395 455 16,100 -1,380 Descending New York Center
10:00AM 40.0733 -76.3942 239° Southwest 383 441 15,000 -420 Descending New York Center
10:02AM 39.9667 -76.6167 238° Southwest 371 427 15,000  Level Potomac TRACON
10:03AM 39.9167 -76.7333 241° Southwest 371 427 15,000  Level Potomac TRACON
10:04AM 39.8667 -76.8500 241° Southwest 367 422 15,000 -240 Level Potomac TRACON
10:05AM 39.8167 -76.9500 237° Southwest 363 418 14,600 -780 Descending Potomac TRACON
10:06AM 39.7667 -77.0333 232° Southwest 348 400 13,600 -1,260 Descending Potomac TRACON
10:07AM 39.7167 -77.1333 237° Southwest 332 382 12,400 -1,260 Descending Potomac TRACON
10:08AM 39.6667 -77.2333 237° Southwest 331 381 11,100 -1,260 Descending Potomac TRACON
10:09AM 39.6167 -77.3333 237° Southwest 327 376 9,900 -1,200 Descending Potomac TRACON
10:10AM 39.5333 -77.3500 189° South 303 349 8,800 -1,200 Descending Potomac TRACON
10:11AM 39.4500 -77.3667 189° South 299 344 7,600 -1,200 Descending Potomac TRACON
10:12AM 39.3667 -77.3667 180° South 294 338 6,500 -1,260 Descending Potomac TRACON
10:13AM 39.2833 -77.3667 180° South 293 337 5,300 -1,140 Descending Potomac TRACON
10:14AM 39.2167 -77.3667 180° South 283 326 4,400 -660 Descending Potomac TRACON
10:15AM 39.1333 -77.3500 171° South 275 316 4,000 -240 Descending Potomac TRACON
10:16AM 39.0500 -77.3500 180° South 279 321 4,000  Level Potomac TRACON
10:17AM 38.9833 -77.3500 180° South 281 323 4,000 -540 Level Potomac TRACON
10:18AM 38.9000 -77.3500 180° South 268 308 3,000 -540 Descending Potomac TRACON
10:19AM 38.8333 -77.3667 191° South 225 259 3,000 -360 Level Potomac TRACON
10:20AM 38.7833 -77.3833 195° South 231 266 2,300 -600 Descending Potomac TRACON
10:21AM 38.8000 -77.4333 293° West 183 211 1,800 -360 Descending Potomac TRACON
10:22AM 38.8500 -77.4333 360° North 182 209 1,600 -480 Descending Potomac TRACON
10:23AM 38.9000 -77.4333 360° North 138 159 800 -780 Descending Potomac TRACON